sensor_id;sensor_type;location;lat;lon;timestamp;P1;durP1;ratioP1;P2;durP2;ratioP2
19919;SDS011;10122;50.074;19.920;2024-02-23T00:01:05;7.43;;;6.82;;
19919;SDS011;10122;50.074;19.920;2024-02-23T00:03:31;7.10;;;6.60;;
19919;SDS011;10122;50.074;19.920;2024-02-23T00:05:59;7.00;;;6.50;;
19919;SDS011;10122;50.074;19.920;2024-02-23T00:08:25;6.80;;;6.40;;
19919;SDS011;10122;50.074;19.920;2024-02-23T00:10:50;7.18;;;6.68;;
19919;SDS011;10122;50.074;19.920;2024-02-23T00:13:16;7.00;;;6.50;;
19919;SDS011;10122;50.074;19.920;2024-02-23T00:15:41;6.93;;;6.43;;
19919;SDS011;10122;50.074;19.920;2024-02-23T00:18:09;7.20;;;6.70;;
19919;SDS011;10122;50.074;19.920;2024-02-23T00:20:34;6.70;;;6.30;;
19919;SDS011;10122;50.074;19.920;2024-02-23T00:23:01;7.00;;;6.60;;
19919;SDS011;10122;50.074;19.920;2024-02-23T00:25:27;6.78;;;6.38;;
19919;SDS011;10122;50.074;19.920;2024-02-23T00:27:53;7.07;;;6.57;;
19919;SDS011;10122;50.074;19.920;2024-02-23T00:30:19;6.80;;;6.40;;
19919;SDS011;10122;50.074;19.920;2024-02-23T00:32:44;7.03;;;6.53;;
19919;SDS011;10122;50.074;19.920;2024-02-23T00:35:10;6.90;;;6.40;;
19919;SDS011;10122;50.074;19.920;2024-02-23T00:37:36;7.22;;;6.70;;
19919;SDS011;10122;50.074;19.920;2024-02-23T00:40:02;6.90;;;6.40;;
19919;SDS011;10122;50.074;19.920;2024-02-23T00:42:29;7.30;;;6.70;;
19919;SDS011;10122;50.074;19.920;2024-02-23T00:44:55;7.40;;;6.90;;
19919;SDS011;10122;50.074;19.920;2024-02-23T00:47:21;7.30;;;6.80;;
19919;SDS011;10122;50.074;19.920;2024-02-23T00:49:47;7.82;;;7.20;;
19919;SDS011;10122;50.074;19.920;2024-02-23T00:52:12;7.20;;;6.70;;
19919;SDS011;10122;50.074;19.920;2024-02-23T00:54:39;7.45;;;6.80;;
19919;SDS011;10122;50.074;19.920;2024-02-23T00:57:04;7.20;;;6.63;;
19919;SDS011;10122;50.074;19.920;2024-02-23T00:59:30;7.22;;;6.63;;
19919;SDS011;10122;50.074;19.920;2024-02-23T01:01:56;7.15;;;6.65;;
19919;SDS011;10122;50.074;19.920;2024-02-23T01:04:22;7.20;;;6.70;;
19919;SDS011;10122;50.074;19.920;2024-02-23T01:06:47;7.32;;;6.82;;
19919;SDS011;10122;50.074;19.920;2024-02-23T01:09:13;7.22;;;6.72;;
19919;SDS011;10122;50.074;19.920;2024-02-23T01:11:41;7.30;;;6.70;;
19919;SDS011;10122;50.074;19.920;2024-02-23T01:14:07;7.60;;;7.10;;
19919;SDS011;10122;50.074;19.920;2024-02-23T01:16:33;7.80;;;7.20;;
19919;SDS011;10122;50.074;19.920;2024-02-23T01:18:59;7.90;;;7.30;;
19919;SDS011;10122;50.074;19.920;2024-02-23T01:21:24;7.72;;;7.10;;
19919;SDS011;10122;50.074;19.920;2024-02-23T01:23:50;7.68;;;6.97;;
19919;SDS011;10122;50.074;19.920;2024-02-23T01:26:15;8.00;;;7.30;;
19919;SDS011;10122;50.074;19.920;2024-02-23T01:28:41;8.10;;;7.50;;
19919;SDS011;10122;50.074;19.920;2024-02-23T01:31:10;7.80;;;7.00;;
19919;SDS011;10122;50.074;19.920;2024-02-23T01:33:37;7.10;;;6.60;;
19919;SDS011;10122;50.074;19.920;2024-02-23T01:36:04;7.43;;;6.88;;
19919;SDS011;10122;50.074;19.920;2024-02-23T01:38:30;6.95;;;6.45;;
19919;SDS011;10122;50.074;19.920;2024-02-23T01:40:58;7.30;;;6.80;;
19919;SDS011;10122;50.074;19.920;2024-02-23T01:43:24;7.10;;;6.60;;
19919;SDS011;10122;50.074;19.920;2024-02-23T01:45:49;7.00;;;6.50;;
19919;SDS011;10122;50.074;19.920;2024-02-23T01:48:15;7.20;;;6.70;;
19919;SDS011;10122;50.074;19.920;2024-02-23T01:50:41;7.30;;;6.70;;
19919;SDS011;10122;50.074;19.920;2024-02-23T01:53:08;7.15;;;6.65;;
19919;SDS011;10122;50.074;19.920;2024-02-23T01:55:37;7.95;;;6.72;;
19919;SDS011;10122;50.074;19.920;2024-02-23T01:58:06;7.50;;;7.00;;
19919;SDS011;10122;50.074;19.920;2024-02-23T02:00:33;7.43;;;6.80;;
19919;SDS011;10122;50.074;19.920;2024-02-23T02:03:00;7.55;;;6.95;;
19919;SDS011;10122;50.074;19.920;2024-02-23T02:05:26;7.68;;;6.95;;
19919;SDS011;10122;50.074;19.920;2024-02-23T02:07:53;7.40;;;6.90;;
19919;SDS011;10122;50.074;19.920;2024-02-23T02:10:24;7.60;;;7.00;;
19919;SDS011;10122;50.074;19.920;2024-02-23T02:12:50;7.72;;;7.00;;
19919;SDS011;10122;50.074;19.920;2024-02-23T02:15:16;7.60;;;7.00;;
19919;SDS011;10122;50.074;19.920;2024-02-23T02:17:41;7.35;;;6.75;;
19919;SDS011;10122;50.074;19.920;2024-02-23T02:20:10;7.80;;;7.00;;
19919;SDS011;10122;50.074;19.920;2024-02-23T02:22:37;7.70;;;7.00;;
19919;SDS011;10122;50.074;19.920;2024-02-23T02:25:03;7.43;;;6.82;;
19919;SDS011;10122;50.074;19.920;2024-02-23T02:27:29;7.28;;;6.78;;
19919;SDS011;10122;50.074;19.920;2024-02-23T02:29:55;7.53;;;6.85;;
19919;SDS011;10122;50.074;19.920;2024-02-23T02:32:20;7.50;;;6.90;;
19919;SDS011;10122;50.074;19.920;2024-02-23T02:34:46;7.40;;;6.90;;
19919;SDS011;10122;50.074;19.920;2024-02-23T02:37:12;7.80;;;7.05;;
19919;SDS011;10122;50.074;19.920;2024-02-23T02:39:38;7.32;;;6.82;;
19919;SDS011;10122;50.074;19.920;2024-02-23T02:42:03;7.90;;;7.20;;
19919;SDS011;10122;50.074;19.920;2024-02-23T02:44:29;7.47;;;6.93;;
19919;SDS011;10122;50.074;19.920;2024-02-23T02:46:58;7.70;;;7.10;;
19919;SDS011;10122;50.074;19.920;2024-02-23T02:49:24;7.50;;;6.82;;
19919;SDS011;10122;50.074;19.920;2024-02-23T02:51:50;8.05;;;7.25;;
19919;SDS011;10122;50.074;19.920;2024-02-23T02:54:15;7.45;;;6.90;;
19919;SDS011;10122;50.074;19.920;2024-02-23T02:56:42;7.57;;;6.95;;
19919;SDS011;10122;50.074;19.920;2024-02-23T02:59:08;7.70;;;7.10;;
19919;SDS011;10122;50.074;19.920;2024-02-23T03:01:35;7.53;;;6.93;;
19919;SDS011;10122;50.074;19.920;2024-02-23T03:04:01;7.30;;;6.80;;
19919;SDS011;10122;50.074;19.920;2024-02-23T03:06:26;7.90;;;7.30;;
19919;SDS011;10122;50.074;19.920;2024-02-23T03:08:52;7.35;;;6.85;;
19919;SDS011;10122;50.074;19.920;2024-02-23T03:11:18;7.57;;;7.00;;
19919;SDS011;10122;50.074;19.920;2024-02-23T03:13:43;7.85;;;7.28;;
19919;SDS011;10122;50.074;19.920;2024-02-23T03:16:16;7.65;;;7.05;;
19919;SDS011;10122;50.074;19.920;2024-02-23T03:18:43;8.00;;;7.30;;
19919;SDS011;10122;50.074;19.920;2024-02-23T03:21:10;7.90;;;7.20;;
19919;SDS011;10122;50.074;19.920;2024-02-23T03:23:36;9.45;;;7.60;;
19919;SDS011;10122;50.074;19.920;2024-02-23T03:26:02;7.80;;;7.10;;
19919;SDS011;10122;50.074;19.920;2024-02-23T03:28:28;7.32;;;6.82;;
19919;SDS011;10122;50.074;19.920;2024-02-23T03:30:54;7.65;;;7.05;;
19919;SDS011;10122;50.074;19.920;2024-02-23T03:33:20;8.52;;;7.30;;
19919;SDS011;10122;50.074;19.920;2024-02-23T03:35:45;7.88;;;7.20;;
19919;SDS011;10122;50.074;19.920;2024-02-23T03:38:11;7.75;;;7.07;;
19919;SDS011;10122;50.074;19.920;2024-02-23T03:40:37;7.45;;;6.80;;
19919;SDS011;10122;50.074;19.920;2024-02-23T03:43:03;7.45;;;6.85;;
19919;SDS011;10122;50.074;19.920;2024-02-23T03:45:30;7.40;;;6.90;;
19919;SDS011;10122;50.074;19.920;2024-02-23T03:47:56;7.45;;;6.85;;
19919;SDS011;10122;50.074;19.920;2024-02-23T03:50:22;7.60;;;7.00;;
19919;SDS011;10122;50.074;19.920;2024-02-23T03:52:48;7.55;;;6.97;;
19919;SDS011;10122;50.074;19.920;2024-02-23T03:55:13;7.28;;;6.78;;
19919;SDS011;10122;50.074;19.920;2024-02-23T03:57:39;8.80;;;7.50;;
19919;SDS011;10122;50.074;19.920;2024-02-23T04:00:05;9.02;;;7.03;;
19919;SDS011;10122;50.074;19.920;2024-02-23T04:02:32;7.80;;;7.10;;
19919;SDS011;10122;50.074;19.920;2024-02-23T04:04:59;8.27;;;7.47;;
19919;SDS011;10122;50.074;19.920;2024-02-23T04:07:25;8.18;;;7.47;;
19919;SDS011;10122;50.074;19.920;2024-02-23T04:09:50;8.07;;;7.38;;
19919;SDS011;10122;50.074;19.920;2024-02-23T04:12:19;8.07;;;7.38;;
19919;SDS011;10122;50.074;19.920;2024-02-23T04:14:48;7.78;;;7.10;;
19919;SDS011;10122;50.074;19.920;2024-02-23T04:17:15;8.15;;;7.45;;
19919;SDS011;10122;50.074;19.920;2024-02-23T04:19:42;8.20;;;7.43;;
19919;SDS011;10122;50.074;19.920;2024-02-23T04:22:08;7.78;;;7.18;;
19919;SDS011;10122;50.074;19.920;2024-02-23T04:24:40;8.00;;;7.40;;
19919;SDS011;10122;50.074;19.920;2024-02-23T04:27:07;8.18;;;7.47;;
19919;SDS011;10122;50.074;19.920;2024-02-23T04:29:33;7.82;;;7.25;;
19919;SDS011;10122;50.074;19.920;2024-02-23T04:31:59;7.82;;;7.22;;
19919;SDS011;10122;50.074;19.920;2024-02-23T04:34:26;7.95;;;7.20;;
19919;SDS011;10122;50.074;19.920;2024-02-23T04:36:55;7.95;;;7.22;;
19919;SDS011;10122;50.074;19.920;2024-02-23T04:39:21;8.30;;;7.55;;
19919;SDS011;10122;50.074;19.920;2024-02-23T04:41:47;8.05;;;7.45;;
19919;SDS011;10122;50.074;19.920;2024-02-23T04:44:13;8.00;;;7.30;;
19919;SDS011;10122;50.074;19.920;2024-02-23T04:46:38;8.50;;;7.72;;
19919;SDS011;10122;50.074;19.920;2024-02-23T04:49:04;7.80;;;7.20;;
19919;SDS011;10122;50.074;19.920;2024-02-23T04:51:30;8.25;;;7.55;;
19919;SDS011;10122;50.074;19.920;2024-02-23T04:53:55;7.55;;;6.95;;
19919;SDS011;10122;50.074;19.920;2024-02-23T04:56:21;7.85;;;7.20;;
19919;SDS011;10122;50.074;19.920;2024-02-23T04:58:47;8.15;;;7.45;;
19919;SDS011;10122;50.074;19.920;2024-02-23T05:01:13;8.25;;;7.55;;
19919;SDS011;10122;50.074;19.920;2024-02-23T05:03:38;7.85;;;7.20;;
19919;SDS011;10122;50.074;19.920;2024-02-23T05:06:04;7.65;;;7.05;;
19919;SDS011;10122;50.074;19.920;2024-02-23T05:08:30;8.30;;;7.60;;
19919;SDS011;10122;50.074;19.920;2024-02-23T05:10:56;8.15;;;7.45;;
19919;SDS011;10122;50.074;19.920;2024-02-23T05:13:22;8.40;;;7.60;;
19919;SDS011;10122;50.074;19.920;2024-02-23T05:15:48;8.65;;;7.85;;
19919;SDS011;10122;50.074;19.920;2024-02-23T05:18:14;8.27;;;7.57;;
19919;SDS011;10122;50.074;19.920;2024-02-23T05:20:40;8.48;;;7.68;;
19919;SDS011;10122;50.074;19.920;2024-02-23T05:23:06;8.73;;;8.02;;
19919;SDS011;10122;50.074;19.920;2024-02-23T05:25:31;8.27;;;7.57;;
19919;SDS011;10122;50.074;19.920;2024-02-23T05:27:57;8.60;;;7.80;;
19919;SDS011;10122;50.074;19.920;2024-02-23T05:30:23;8.38;;;7.70;;
19919;SDS011;10122;50.074;19.920;2024-02-23T05:32:49;9.07;;;8.15;;
19919;SDS011;10122;50.074;19.920;2024-02-23T05:35:15;8.73;;;7.93;;
19919;SDS011;10122;50.074;19.920;2024-02-23T05:37:41;8.70;;;8.00;;
19919;SDS011;10122;50.074;19.920;2024-02-23T05:40:07;9.00;;;8.10;;
19919;SDS011;10122;50.074;19.920;2024-02-23T05:42:35;9.18;;;8.20;;
19919;SDS011;10122;50.074;19.920;2024-02-23T05:45:01;9.07;;;8.27;;
19919;SDS011;10122;50.074;19.920;2024-02-23T05:47:29;9.00;;;8.20;;
19919;SDS011;10122;50.074;19.920;2024-02-23T05:49:55;9.27;;;8.38;;
19919;SDS011;10122;50.074;19.920;2024-02-23T05:52:21;9.13;;;8.32;;
19919;SDS011;10122;50.074;19.920;2024-02-23T05:54:47;9.50;;;8.30;;
19919;SDS011;10122;50.074;19.920;2024-02-23T05:57:13;9.48;;;8.48;;
19919;SDS011;10122;50.074;19.920;2024-02-23T05:59:38;9.07;;;8.15;;
19919;SDS011;10122;50.074;19.920;2024-02-23T06:02:04;11.93;;;8.68;;
19919;SDS011;10122;50.074;19.920;2024-02-23T06:04:31;9.57;;;8.20;;
19919;SDS011;10122;50.074;19.920;2024-02-23T06:06:57;10.05;;;8.43;;
19919;SDS011;10122;50.074;19.920;2024-02-23T06:09:22;9.70;;;8.63;;
19919;SDS011;10122;50.074;19.920;2024-02-23T06:11:48;9.93;;;8.82;;
19919;SDS011;10122;50.074;19.920;2024-02-23T06:14:14;10.90;;;9.70;;
19919;SDS011;10122;50.074;19.920;2024-02-23T06:16:39;9.60;;;8.70;;
19919;SDS011;10122;50.074;19.920;2024-02-23T06:19:05;11.00;;;9.60;;
19919;SDS011;10122;50.074;19.920;2024-02-23T06:21:31;11.48;;;8.88;;
19919;SDS011;10122;50.074;19.920;2024-02-23T06:23:57;9.80;;;8.80;;
19919;SDS011;10122;50.074;19.920;2024-02-23T06:26:23;13.18;;;8.80;;
19919;SDS011;10122;50.074;19.920;2024-02-23T06:28:49;9.65;;;8.70;;
19919;SDS011;10122;50.074;19.920;2024-02-23T06:31:14;9.38;;;8.43;;
19919;SDS011;10122;50.074;19.920;2024-02-23T06:33:40;9.60;;;8.55;;
19919;SDS011;10122;50.074;19.920;2024-02-23T06:36:06;14.60;;;8.98;;
19919;SDS011;10122;50.074;19.920;2024-02-23T06:38:32;9.13;;;8.20;;
19919;SDS011;10122;50.074;19.920;2024-02-23T06:40:58;12.45;;;8.80;;
19919;SDS011;10122;50.074;19.920;2024-02-23T06:43:24;9.65;;;8.65;;
19919;SDS011;10122;50.074;19.920;2024-02-23T06:45:50;9.57;;;8.75;;
19919;SDS011;10122;50.074;19.920;2024-02-23T06:48:16;9.70;;;8.80;;
19919;SDS011;10122;50.074;19.920;2024-02-23T06:50:42;9.27;;;8.38;;
19919;SDS011;10122;50.074;19.920;2024-02-23T06:53:08;16.80;;;9.40;;
19919;SDS011;10122;50.074;19.920;2024-02-23T06:55:34;11.32;;;9.15;;
19919;SDS011;10122;50.074;19.920;2024-02-23T06:58:00;11.90;;;9.00;;
19919;SDS011;10122;50.074;19.920;2024-02-23T07:00:26;12.43;;;9.30;;
19919;SDS011;10122;50.074;19.920;2024-02-23T07:02:52;10.48;;;8.77;;
19919;SDS011;10122;50.074;19.920;2024-02-23T07:05:17;10.60;;;9.45;;
19919;SDS011;10122;50.074;19.920;2024-02-23T07:07:43;10.27;;;9.27;;
19919;SDS011;10122;50.074;19.920;2024-02-23T07:10:09;11.43;;;9.32;;
19919;SDS011;10122;50.074;19.920;2024-02-23T07:12:37;14.02;;;9.27;;
19919;SDS011;10122;50.074;19.920;2024-02-23T07:15:02;10.88;;;9.70;;
19919;SDS011;10122;50.074;19.920;2024-02-23T07:17:29;10.50;;;9.10;;
19919;SDS011;10122;50.074;19.920;2024-02-23T07:19:54;11.88;;;8.77;;
19919;SDS011;10122;50.074;19.920;2024-02-23T07:22:27;11.45;;;9.35;;
19919;SDS011;10122;50.074;19.920;2024-02-23T07:24:53;11.30;;;8.90;;
19919;SDS011;10122;50.074;19.920;2024-02-23T07:27:19;9.48;;;8.57;;
19919;SDS011;10122;50.074;19.920;2024-02-23T07:29:44;12.20;;;9.35;;
19919;SDS011;10122;50.074;19.920;2024-02-23T07:32:10;11.35;;;9.55;;
19919;SDS011;10122;50.074;19.920;2024-02-23T07:34:36;9.85;;;8.85;;
19919;SDS011;10122;50.074;19.920;2024-02-23T07:37:02;12.07;;;9.75;;
19919;SDS011;10122;50.074;19.920;2024-02-23T07:39:28;10.35;;;9.35;;
19919;SDS011;10122;50.074;19.920;2024-02-23T07:41:54;10.55;;;9.05;;
19919;SDS011;10122;50.074;19.920;2024-02-23T07:44:20;10.00;;;9.00;;
19919;SDS011;10122;50.074;19.920;2024-02-23T07:46:45;12.95;;;9.60;;
19919;SDS011;10122;50.074;19.920;2024-02-23T07:49:11;11.18;;;9.80;;
19919;SDS011;10122;50.074;19.920;2024-02-23T07:51:37;10.27;;;9.23;;
19919;SDS011;10122;50.074;19.920;2024-02-23T07:54:03;10.43;;;9.23;;
19919;SDS011;10122;50.074;19.920;2024-02-23T07:56:28;12.40;;;9.00;;
19919;SDS011;10122;50.074;19.920;2024-02-23T07:58:55;12.63;;;9.98;;
19919;SDS011;10122;50.074;19.920;2024-02-23T08:01:21;10.95;;;9.68;;
19919;SDS011;10122;50.074;19.920;2024-02-23T08:03:47;10.82;;;9.65;;
19919;SDS011;10122;50.074;19.920;2024-02-23T08:06:12;13.60;;;9.18;;
19919;SDS011;10122;50.074;19.920;2024-02-23T08:08:38;11.45;;;8.98;;
19919;SDS011;10122;50.074;19.920;2024-02-23T08:11:04;11.45;;;9.35;;
19919;SDS011;10122;50.074;19.920;2024-02-23T08:13:30;11.57;;;8.50;;
19919;SDS011;10122;50.074;19.920;2024-02-23T08:15:59;8.95;;;8.15;;
19919;SDS011;10122;50.074;19.920;2024-02-23T08:18:25;8.80;;;8.00;;
19919;SDS011;10122;50.074;19.920;2024-02-23T08:20:51;9.43;;;8.30;;
19919;SDS011;10122;50.074;19.920;2024-02-23T08:23:17;10.25;;;7.78;;
19919;SDS011;10122;50.074;19.920;2024-02-23T08:25:47;8.43;;;7.35;;
19919;SDS011;10122;50.074;19.920;2024-02-23T08:28:13;9.60;;;7.70;;
19919;SDS011;10122;50.074;19.920;2024-02-23T08:30:39;8.23;;;7.43;;
19919;SDS011;10122;50.074;19.920;2024-02-23T08:33:05;8.63;;;7.78;;
19919;SDS011;10122;50.074;19.920;2024-02-23T08:35:30;8.40;;;7.50;;
19919;SDS011;10122;50.074;19.920;2024-02-23T08:37:57;8.18;;;7.38;;
19919;SDS011;10122;50.074;19.920;2024-02-23T08:40:23;8.10;;;7.38;;
19919;SDS011;10122;50.074;19.920;2024-02-23T08:42:48;8.13;;;7.28;;
19919;SDS011;10122;50.074;19.920;2024-02-23T08:45:15;9.10;;;7.43;;
19919;SDS011;10122;50.074;19.920;2024-02-23T08:47:41;8.63;;;7.63;;
19919;SDS011;10122;50.074;19.920;2024-02-23T08:50:07;8.73;;;7.80;;
19919;SDS011;10122;50.074;19.920;2024-02-23T08:52:33;8.75;;;7.57;;
19919;SDS011;10122;50.074;19.920;2024-02-23T08:54:58;8.95;;;7.72;;
19919;SDS011;10122;50.074;19.920;2024-02-23T08:57:25;9.00;;;8.10;;
19919;SDS011;10122;50.074;19.920;2024-02-23T08:59:52;8.52;;;7.63;;
19919;SDS011;10122;50.074;19.920;2024-02-23T09:02:18;8.45;;;7.63;;
19919;SDS011;10122;50.074;19.920;2024-02-23T09:04:44;8.77;;;7.88;;
19919;SDS011;10122;50.074;19.920;2024-02-23T09:07:10;9.07;;;8.02;;
19919;SDS011;10122;50.074;19.920;2024-02-23T09:09:37;9.07;;;7.93;;
19919;SDS011;10122;50.074;19.920;2024-02-23T09:12:02;9.75;;;8.27;;
19919;SDS011;10122;50.074;19.920;2024-02-23T09:14:28;9.35;;;8.07;;
19919;SDS011;10122;50.074;19.920;2024-02-23T09:16:54;9.43;;;8.10;;
19919;SDS011;10122;50.074;19.920;2024-02-23T09:19:20;9.35;;;8.02;;
19919;SDS011;10122;50.074;19.920;2024-02-23T09:21:46;9.93;;;7.80;;
19919;SDS011;10122;50.074;19.920;2024-02-23T09:24:12;10.60;;;7.85;;
19919;SDS011;10122;50.074;19.920;2024-02-23T09:26:38;8.40;;;7.60;;
19919;SDS011;10122;50.074;19.920;2024-02-23T09:29:04;8.70;;;7.80;;
19919;SDS011;10122;50.074;19.920;2024-02-23T09:31:30;8.90;;;7.75;;
19919;SDS011;10122;50.074;19.920;2024-02-23T09:33:56;8.15;;;7.38;;
19919;SDS011;10122;50.074;19.920;2024-02-23T09:36:22;8.75;;;7.85;;
19919;SDS011;10122;50.074;19.920;2024-02-23T09:38:49;8.32;;;7.43;;
19919;SDS011;10122;50.074;19.920;2024-02-23T09:41:22;9.43;;;7.57;;
19919;SDS011;10122;50.074;19.920;2024-02-23T09:43:48;10.40;;;7.90;;
19919;SDS011;10122;50.074;19.920;2024-02-23T09:46:15;8.68;;;7.88;;
19919;SDS011;10122;50.074;19.920;2024-02-23T09:48:45;9.10;;;7.90;;
19919;SDS011;10122;50.074;19.920;2024-02-23T09:51:13;8.07;;;7.28;;
19919;SDS011;10122;50.074;19.920;2024-02-23T09:53:39;8.48;;;7.68;;
19919;SDS011;10122;50.074;19.920;2024-02-23T09:56:08;7.50;;;6.90;;
19919;SDS011;10122;50.074;19.920;2024-02-23T09:58:35;7.95;;;7.25;;
19919;SDS011;10122;50.074;19.920;2024-02-23T10:01:02;8.20;;;7.40;;
19919;SDS011;10122;50.074;19.920;2024-02-23T10:03:29;7.65;;;6.90;;
19919;SDS011;10122;50.074;19.920;2024-02-23T10:05:58;8.20;;;7.40;;
19919;SDS011;10122;50.074;19.920;2024-02-23T10:08:27;8.52;;;7.18;;
19919;SDS011;10122;50.074;19.920;2024-02-23T10:10:53;7.95;;;7.30;;
19919;SDS011;10122;50.074;19.920;2024-02-23T10:13:19;8.15;;;7.43;;
19919;SDS011;10122;50.074;19.920;2024-02-23T10:15:49;9.00;;;7.70;;
19919;SDS011;10122;50.074;19.920;2024-02-23T10:18:15;9.23;;;7.65;;
19919;SDS011;10122;50.074;19.920;2024-02-23T10:20:41;8.18;;;7.47;;
19919;SDS011;10122;50.074;19.920;2024-02-23T10:23:07;7.63;;;6.93;;
19919;SDS011;10122;50.074;19.920;2024-02-23T10:25:34;8.10;;;7.40;;
19919;SDS011;10122;50.074;19.920;2024-02-23T10:28:03;7.75;;;7.00;;
19919;SDS011;10122;50.074;19.920;2024-02-23T10:30:32;7.78;;;7.07;;
19919;SDS011;10122;50.074;19.920;2024-02-23T10:32:59;8.52;;;7.50;;
19919;SDS011;10122;50.074;19.920;2024-02-23T10:35:25;8.98;;;7.80;;
19919;SDS011;10122;50.074;19.920;2024-02-23T10:37:52;8.05;;;7.38;;
19919;SDS011;10122;50.074;19.920;2024-02-23T10:40:20;8.55;;;7.75;;
19919;SDS011;10122;50.074;19.920;2024-02-23T10:42:49;8.95;;;8.02;;
19919;SDS011;10122;50.074;19.920;2024-02-23T10:45:21;8.18;;;7.47;;
19919;SDS011;10122;50.074;19.920;2024-02-23T10:47:50;8.57;;;7.80;;
19919;SDS011;10122;50.074;19.920;2024-02-23T10:50:17;8.30;;;7.60;;
19919;SDS011;10122;50.074;19.920;2024-02-23T10:52:44;7.90;;;7.20;;
19919;SDS011;10122;50.074;19.920;2024-02-23T10:55:14;7.78;;;7.10;;
19919;SDS011;10122;50.074;19.920;2024-02-23T10:57:40;7.82;;;7.22;;
19919;SDS011;10122;50.074;19.920;2024-02-23T11:00:07;7.78;;;7.07;;
19919;SDS011;10122;50.074;19.920;2024-02-23T11:02:40;10.43;;;7.30;;
19919;SDS011;10122;50.074;19.920;2024-02-23T11:05:10;8.10;;;7.40;;
19919;SDS011;10122;50.074;19.920;2024-02-23T11:07:48;7.72;;;7.03;;
19919;SDS011;10122;50.074;19.920;2024-02-23T11:10:14;8.10;;;7.28;;
19919;SDS011;10122;50.074;19.920;2024-02-23T11:12:41;7.85;;;7.15;;
19919;SDS011;10122;50.074;19.920;2024-02-23T11:15:08;9.68;;;7.50;;
19919;SDS011;10122;50.074;19.920;2024-02-23T11:17:36;8.07;;;7.38;;
19919;SDS011;10122;50.074;19.920;2024-02-23T11:20:04;7.97;;;7.28;;
19919;SDS011;10122;50.074;19.920;2024-02-23T11:22:32;7.85;;;7.15;;
19919;SDS011;10122;50.074;19.920;2024-02-23T11:25:04;7.95;;;7.25;;
19919;SDS011;10122;50.074;19.920;2024-02-23T11:27:35;8.20;;;7.50;;
19919;SDS011;10122;50.074;19.920;2024-02-23T11:30:02;8.05;;;7.35;;
19919;SDS011;10122;50.074;19.920;2024-02-23T11:32:37;8.52;;;7.68;;
19919;SDS011;10122;50.074;19.920;2024-02-23T11:35:08;7.63;;;6.95;;
19919;SDS011;10122;50.074;19.920;2024-02-23T11:37:48;8.57;;;7.88;;
19919;SDS011;10122;50.074;19.920;2024-02-23T11:40:21;8.93;;;8.02;;
19919;SDS011;10122;50.074;19.920;2024-02-23T11:42:47;8.15;;;7.35;;
19919;SDS011;10122;50.074;19.920;2024-02-23T11:45:13;8.52;;;7.82;;
19919;SDS011;10122;50.074;19.920;2024-02-23T11:47:39;8.48;;;7.60;;
19919;SDS011;10122;50.074;19.920;2024-02-23T11:50:08;8.55;;;7.85;;
19919;SDS011;10122;50.074;19.920;2024-02-23T11:52:34;8.27;;;7.65;;
19919;SDS011;10122;50.074;19.920;2024-02-23T11:55:01;8.65;;;7.88;;
19919;SDS011;10122;50.074;19.920;2024-02-23T11:57:27;8.20;;;7.53;;
19919;SDS011;10122;50.074;19.920;2024-02-23T11:59:53;8.73;;;7.93;;
19919;SDS011;10122;50.074;19.920;2024-02-23T12:02:19;8.48;;;7.78;;
19919;SDS011;10122;50.074;19.920;2024-02-23T12:04:45;8.70;;;7.93;;
19919;SDS011;10122;50.074;19.920;2024-02-23T12:07:10;8.70;;;7.90;;
19919;SDS011;10122;50.074;19.920;2024-02-23T12:09:37;8.70;;;8.00;;
19919;SDS011;10122;50.074;19.920;2024-02-23T12:12:06;8.48;;;7.85;;
19919;SDS011;10122;50.074;19.920;2024-02-23T12:14:32;8.50;;;7.80;;
19919;SDS011;10122;50.074;19.920;2024-02-23T12:17:01;8.40;;;7.70;;
19919;SDS011;10122;50.074;19.920;2024-02-23T12:19:29;8.70;;;8.00;;
19919;SDS011;10122;50.074;19.920;2024-02-23T12:21:59;8.70;;;7.97;;
19919;SDS011;10122;50.074;19.920;2024-02-23T12:24:26;8.65;;;8.05;;
19919;SDS011;10122;50.074;19.920;2024-02-23T12:26:56;8.98;;;8.27;;
19919;SDS011;10122;50.074;19.920;2024-02-23T12:29:22;8.43;;;7.78;;
19919;SDS011;10122;50.074;19.920;2024-02-23T12:31:48;8.50;;;7.80;;
19919;SDS011;10122;50.074;19.920;2024-02-23T12:34:14;8.55;;;7.85;;
19919;SDS011;10122;50.074;19.920;2024-02-23T12:36:40;8.73;;;7.97;;
19919;SDS011;10122;50.074;19.920;2024-02-23T12:39:05;9.30;;;8.38;;
19919;SDS011;10122;50.074;19.920;2024-02-23T12:41:31;9.43;;;8.52;;
19919;SDS011;10122;50.074;19.920;2024-02-23T12:43:57;8.75;;;8.05;;
19919;SDS011;10122;50.074;19.920;2024-02-23T12:46:23;8.70;;;7.90;;
19919;SDS011;10122;50.074;19.920;2024-02-23T12:48:49;8.80;;;8.10;;
19919;SDS011;10122;50.074;19.920;2024-02-23T12:51:15;8.90;;;8.10;;
19919;SDS011;10122;50.074;19.920;2024-02-23T12:53:41;8.73;;;7.97;;
19919;SDS011;10122;50.074;19.920;2024-02-23T12:56:12;8.50;;;7.70;;
19919;SDS011;10122;50.074;19.920;2024-02-23T12:58:41;9.35;;;8.55;;
19919;SDS011;10122;50.074;19.920;2024-02-23T13:01:08;8.82;;;8.05;;
19919;SDS011;10122;50.074;19.920;2024-02-23T13:03:35;9.35;;;8.55;;
19919;SDS011;10122;50.074;19.920;2024-02-23T13:06:01;8.90;;;8.00;;
19919;SDS011;10122;50.074;19.920;2024-02-23T13:08:27;9.55;;;8.65;;
19919;SDS011;10122;50.074;19.920;2024-02-23T13:10:54;9.63;;;8.70;;
19919;SDS011;10122;50.074;19.920;2024-02-23T13:13:20;9.52;;;8.70;;
19919;SDS011;10122;50.074;19.920;2024-02-23T13:15:47;9.35;;;8.55;;
19919;SDS011;10122;50.074;19.920;2024-02-23T13:18:14;9.60;;;8.80;;
19919;SDS011;10122;50.074;19.920;2024-02-23T13:20:40;9.32;;;8.60;;
19919;SDS011;10122;50.074;19.920;2024-02-23T13:23:07;9.75;;;8.88;;
19919;SDS011;10122;50.074;19.920;2024-02-23T13:25:34;9.18;;;8.38;;
19919;SDS011;10122;50.074;19.920;2024-02-23T13:28:00;9.05;;;8.18;;
19919;SDS011;10122;50.074;19.920;2024-02-23T13:30:26;9.27;;;8.48;;
19919;SDS011;10122;50.074;19.920;2024-02-23T13:32:53;8.80;;;8.00;;
19919;SDS011;10122;50.074;19.920;2024-02-23T13:35:19;12.15;;;8.88;;
19919;SDS011;10122;50.074;19.920;2024-02-23T13:37:44;9.43;;;8.45;;
19919;SDS011;10122;50.074;19.920;2024-02-23T13:40:10;8.70;;;8.00;;
19919;SDS011;10122;50.074;19.920;2024-02-23T13:42:37;9.20;;;8.40;;
19919;SDS011;10122;50.074;19.920;2024-02-23T13:45:06;8.77;;;7.95;;
19919;SDS011;10122;50.074;19.920;2024-02-23T13:47:33;8.52;;;7.82;;
19919;SDS011;10122;50.074;19.920;2024-02-23T13:49:59;8.95;;;8.13;;
19919;SDS011;10122;50.074;19.920;2024-02-23T13:52:25;9.45;;;8.60;;
19919;SDS011;10122;50.074;19.920;2024-02-23T13:54:51;10.10;;;9.10;;
19919;SDS011;10122;50.074;19.920;2024-02-23T13:57:17;9.23;;;8.32;;
19919;SDS011;10122;50.074;19.920;2024-02-23T13:59:42;8.93;;;8.05;;
19919;SDS011;10122;50.074;19.920;2024-02-23T14:02:08;8.45;;;7.75;;
19919;SDS011;10122;50.074;19.920;2024-02-23T14:04:34;8.15;;;7.45;;
19919;SDS011;10122;50.074;19.920;2024-02-23T14:07:00;8.50;;;7.80;;
19919;SDS011;10122;50.074;19.920;2024-02-23T14:09:26;8.50;;;7.72;;
19919;SDS011;10122;50.074;19.920;2024-02-23T14:11:52;7.95;;;7.18;;
19919;SDS011;10122;50.074;19.920;2024-02-23T14:14:18;7.70;;;7.00;;
19919;SDS011;10122;50.074;19.920;2024-02-23T14:16:45;7.90;;;7.20;;
19919;SDS011;10122;50.074;19.920;2024-02-23T14:19:10;7.60;;;6.97;;
19919;SDS011;10122;50.074;19.920;2024-02-23T14:21:36;7.65;;;7.05;;
19919;SDS011;10122;50.074;19.920;2024-02-23T14:24:02;7.55;;;6.88;;
19919;SDS011;10122;50.074;19.920;2024-02-23T14:26:29;7.55;;;6.93;;
19919;SDS011;10122;50.074;19.920;2024-02-23T14:28:54;8.00;;;7.30;;